Latest Weather Observations for Mardie

IDW60801

Issued at 9:02 pm WST Friday 6 May 2016 (issued every 30 minutes, with the page automatically refreshed every 10 minutes)

About weather observations | Map of weather stations | Latest weather observations for WA | Other Formats
Station Details ID: 005008 Name: MARDIE Lat: -21.19 Lon: 115.98 Height: 11.0 m
Data from the previous 72 hours. | See also: Recent months at Mardie
Date/Time
WST
Temp
°C
App
Temp
°C
Dew
Point
Rel
Hum
%
Delta-T
°C
Wind Press
QNH
hPa
Press
MSL
hPa
Rain
since 9 am
mm
Dir
 
Spd
km/h
Gust
km/h
Spd
kts
Gust
kts
06/09:00pm 24.2 30.2 24.2 100 0.0 CALM 0 0 0 0 1008.2 1008.2 0.2
06/08:30pm 24.3 30.3 24.3 100 0.0 CALM 0 0 0 0 1008.0 1008.0 0.2
06/08:00pm 24.4 30.5 24.4 100 0.0 CALM 0 0 0 0 1007.7 1007.7 0.2
06/07:30pm 24.6 30.8 24.6 100 0.0 CALM 0 0 0 0 1007.1 1007.1 0.2
06/07:00pm 24.5 30.6 24.5 100 0.0 CALM 0 0 0 0 1007.0 1007.0 0.2
06/06:30pm 24.7 31.0 24.7 100 0.0 CALM 0 0 0 0 1007.0 1007.0 0.2
06/06:00pm 24.9 31.3 24.9 100 0.0 CALM 0 0 0 0 1006.8 1006.8 0.2
06/05:30pm 25.0 30.7 25.0 100 0.0 NW 4 6 2 3 1006.6 1006.6 0.2
06/05:00pm 25.1 31.2 25.1 100 0.0 NNW 2 6 1 3 1006.8 1006.8 0.2
06/04:30pm 24.9 30.5 24.9 100 0.0 NNW 4 6 2 3 1007.0 1007.0 0.2
06/04:00pm 24.8 29.8 24.8 100 0.0 NW 7 9 4 5 1007.0 1007.0 0.2
06/03:30pm 24.8 30.0 24.8 100 0.0 NNW 6 9 3 5 1007.0 1007.0 0.2
06/03:00pm 25.1 30.5 25.1 100 0.0 N 6 9 3 5 1007.1 1007.1 0.2
06/02:30pm 24.6 29.7 24.6 100 0.0 N 6 9 3 5 1007.2 1007.2 0.2
06/02:00pm 25.9 31.0 23.4 86 1.7 NE 2 6 1 3 1007.6 1007.6 0.2
06/01:30pm 26.0 31.4 23.3 85 1.8 CALM 0 0 0 0 1007.9 1007.9 0.2
06/01:00pm 25.8 31.6 24.0 90 1.2 CALM 0 0 0 0 1008.2 1008.2 0.2
06/12:30pm 25.6 31.7 25.6 100 0.0 NE 4 7 2 4 1008.7 1008.7 0.2
06/12:00pm 25.0 30.7 25.0 100 0.0 NE 4 7 2 4 1009.0 1009.0 0.2
06/11:30am 24.5 29.9 24.5 100 0.0 NE 4 7 2 4 1009.4 1009.4 0.2
06/11:00am 24.3 29.0 24.3 100 0.0 NE 7 9 4 5 1009.6 1009.6 0.2
06/10:30am 23.9 28.0 23.9 100 0.0 NE 9 11 5 6 1010.2 1010.2 0.2
06/10:00am 23.5 28.3 23.5 100 0.0 ENE 4 7 2 4 1010.5 1010.5 0.2
06/09:30am 23.2 27.8 23.2 100 0.0 N 4 6 2 3 1010.4 1010.4 0.0
06/09:00am 23.1 28.4 23.1 100 0.0 CALM 0 0 0 0 1010.3 1010.3 29.2
06/08:30am 22.9 28.1 22.9 100 0.0 CALM 0 0 0 0 1010.2 1010.2 29.0
06/08:00am 22.6 26.5 22.6 100 0.0 N 6 9 3 5 1010.0 1010.0 29.0
06/07:30am 22.6 27.7 22.6 100 0.0 CALM 0 2 0 1 1009.6 1009.6 29.0
06/07:00am 22.3 27.2 22.3 100 0.0 CALM 0 0 0 0 1009.3 1009.3 28.8
06/06:30am 22.1 25.6 22.1 100 0.0 NNW 7 11 4 6 1009.3 1009.3 28.2
06/06:00am 22.1 24.0 22.1 100 0.0 NW 15 20 8 11 1009.0 1009.0 25.6
06/05:30am 21.4 24.7 21.4 100 0.0 NNW 6 9 3 5 1009.0 1009.0 19.6
06/05:00am 21.5 24.6 21.5 100 0.0 WNW 7 11 4 6 1009.1 1009.1 12.6
06/04:30am 22.2 24.9 22.2 100 0.0 WNW 11 13 6 7 1009.2 1009.2 8.8
06/04:00am 22.3 25.5 22.3 100 0.0 NW 9 15 5 8 1009.2 1009.2 5.6
06/03:30am 22.7 27.8 22.7 100 0.0 CALM 0 4 0 2 1009.5 1009.5 3.0
06/03:00am 22.4 27.0 22.4 100 0.0 SSW 2 6 1 3 1009.5 1009.5 2.6
06/02:30am 22.5 26.7 22.5 100 0.0 SSW 4 9 2 5 1009.7 1009.7 2.0
06/02:00am 22.6 26.3 22.6 100 0.0 SSE 7 9 4 5 1009.9 1009.9 1.4
06/01:30am 22.6 25.6 22.6 100 0.0 S 11 15 6 8 1009.8 1009.8 1.4
06/01:00am 23.1 27.3 23.1 100 0.0 SSW 6 7 3 4 1010.1 1010.1 1.4
06/12:30am 23.3 28.7 23.3 100 0.0 CALM 0 0 0 0 1010.3 1010.3 1.4
06/12:00am 23.2 28.6 23.2 100 0.0 CALM 0 0 0 0 1010.5 1010.5 1.4
 
Date/Time
WST
Temp
°C
App
Temp
°C
Dew
Point
Rel
Hum
%
Delta-T
°C
Wind Press
QNH
hPa
Press
MSL
hPa
Rain
since 9 am
mm
Dir
 
Spd
km/h
Gust
km/h
Spd
kts
Gust
kts
05/11:30pm 22.9 27.6 22.6 98 0.2 NNW 2 6 1 3 1010.5 1010.5 1.4
05/11:00pm 22.8 25.6 21.6 93 0.8 WNW 9 15 5 8 1010.9 1010.9 1.4
05/10:30pm 24.1 26.8 24.1 100 0.0 NNW 17 28 9 15 1010.9 1010.9 0.8
05/10:00pm 25.3 30.6 25.3 100 0.0 WNW 7 11 4 6 1010.9 1010.9 0.8
05/09:30pm 25.5 31.5 25.5 100 0.0 W 4 6 2 3 1010.9 1010.9 0.8
05/09:00pm 25.6 32.4 25.6 100 0.0 CALM 0 0 0 0 1011.2 1011.2 0.8
05/08:30pm 25.7 31.5 25.7 100 0.0 SSW 6 7 3 4 1010.8 1010.8 0.8
05/08:00pm 26.0 33.1 26.0 100 0.0 CALM 0 0 0 0 1010.6 1010.6 0.6
05/07:30pm 25.9 32.9 25.9 100 0.0 CALM 0 0 0 0 1010.4 1010.4 0.4
05/07:00pm 26.1 33.3 26.1 100 0.0 CALM 0 0 0 0 1010.2 1010.2 0.0
05/06:30pm 26.2 33.4 26.2 100 0.0 CALM 0 0 0 0 1009.9 1009.9 0.0
05/06:00pm 26.3 33.5 26.1 99 0.1 CALM 0 0 0 0 1009.9 1009.9 0.0
05/05:30pm 26.6 30.8 24.1 86 1.7 NW 9 13 5 7 1010.0 1010.0 0.0
05/05:00pm 27.2 31.0 23.4 80 2.6 NW 9 13 5 7 1009.9 1009.9 0.0
05/04:30pm 27.7 31.4 22.6 74 3.5 NNW 7 9 4 5 1009.5 1009.5 0.0
05/04:00pm 27.7 30.8 22.2 72 3.7 NW 9 13 5 7 1009.6 1009.6 0.0
05/03:30pm 28.1 30.9 22.3 70 3.9 NW 11 15 6 8 1009.7 1009.7 0.0
05/03:00pm 28.3 30.7 21.6 67 4.5 NW 11 15 6 8 1009.5 1009.5 0.0
05/02:30pm 28.7 30.9 21.2 64 5.0 NW 11 17 6 9 1009.3 1009.3 0.0
05/02:00pm 29.0 30.8 21.2 62 5.2 NW 13 17 7 9 1009.3 1009.3 0.0
05/01:30pm 29.0 31.5 21.0 62 5.3 WNW 9 15 5 8 1009.4 1009.4 0.0
05/01:00pm 29.4 31.9 21.1 61 5.5 NW 9 19 5 10 1009.7 1009.7 0.0
05/12:30pm 28.9 32.1 21.7 65 4.8 NW 7 11 4 6 1010.1 1010.1 0.0
05/12:00pm 28.9 32.4 21.9 66 4.7 NNW 6 11 3 6 1010.5 1010.5 0.0
05/11:30am 28.6 32.7 21.6 66 4.7 W 2 7 1 4 1010.8 1010.8 0.0
05/11:00am 28.8 32.5 22.3 68 4.4 WNW 6 9 3 5 1011.6 1011.6 0.0
05/10:30am 28.4 32.9 22.2 69 4.2 W 2 11 1 6 1011.8 1011.8 0.0
05/10:00am 28.3 31.5 22.3 70 4.1 NW 9 13 5 7 1012.1 1012.1 0.0
05/09:30am 28.4 31.7 21.9 68 4.4 NW 7 15 4 8 1012.0 1012.0 0.0
05/09:00am 28.0 33.8 24.0 79 2.8 CALM 0 6 0 3 1011.8 1011.8 0.0
05/08:30am 26.6 32.3 23.7 84 2.0 CALM 0 0 0 0 1011.2 1011.2 0.0
05/08:00am 25.9 30.6 23.4 86 1.7 NNW 4 6 2 3 1011.5 1011.5 0.0
05/07:30am 25.6 31.3 23.8 90 1.2 CALM 0 0 0 0 1011.3 1011.3 0.0
05/07:00am 25.4 30.7 24.4 94 0.7 N 4 6 2 3 1011.0 1011.0 0.0
05/06:30am 25.5 31.0 24.6 95 0.6 NW 4 7 2 4 1010.8 1010.8 0.0
05/06:00am 25.7 31.3 25.4 98 0.2 N 6 9 3 5 1010.4 1010.4 0.0
05/05:30am 25.6 32.3 25.4 99 0.1 CALM 0 0 0 0 1010.2 1010.2 0.0
05/05:00am 25.4 32.0 25.2 99 0.1 CALM 0 0 0 0 1010.1 1010.1 0.0
05/04:30am 25.3 31.6 24.8 97 0.3 CALM 0 4 0 2 1010.1 1010.1 0.0
05/04:00am 25.7 31.2 24.7 94 0.7 SSE 4 7 2 4 1009.5 1009.5 0.0
05/03:30am 25.6 31.7 24.4 93 0.8 CALM 0 6 0 3 1009.5 1009.5 0.0
05/03:00am 25.8 32.6 25.5 98 0.2 CALM 0 0 0 0 1009.9 1009.9 0.0
05/02:30am 25.9 32.8 25.7 99 0.1 CALM 0 0 0 0 1010.2 1010.2 0.0
05/02:00am 25.8 32.6 25.6 99 0.1 CALM 0 0 0 0 1010.3 1010.3 0.0
05/01:30am 26.0 32.8 25.5 97 0.4 CALM 0 0 0 0 1010.4 1010.4 0.0
05/01:00am 26.0 32.5 25.0 94 0.7 CALM 0 0 0 0 1010.5 1010.5 0.0
05/12:30am 26.1 32.5 24.9 93 0.8 CALM 0 0 0 0 1010.7 1010.7 0.0
05/12:00am 26.3 32.7 24.9 92 1.0 CALM 0 0 0 0 1010.8 1010.8 0.0
 
Date/Time
WST
Temp
°C
App
Temp
°C
Dew
Point
Rel
Hum
%
Delta-T
°C
Wind Press
QNH
hPa
Press
MSL
hPa
Rain
since 9 am
mm
Dir
 
Spd
km/h
Gust
km/h
Spd
kts
Gust
kts
04/11:30pm 26.3 32.6 24.7 91 1.1 CALM 0 0 0 0 1011.0 1011.0 0.0
04/11:00pm 26.4 32.2 24.6 90 1.2 NW 2 6 1 3 1011.4 1011.4 0.0
04/10:30pm 26.3 31.2 24.3 89 1.4 NW 6 9 3 5 1011.8 1011.8 0.0
04/10:00pm 26.7 32.7 24.2 86 1.7 CALM 0 0 0 0 1011.3 1011.3 0.0
04/09:30pm 26.8 32.7 24.1 85 1.9 CALM 0 0 0 0 1011.5 1011.5 0.0
04/09:00pm 26.9 32.7 24.0 84 2.0 CALM 0 0 0 0 1011.6 1011.6 0.0
04/08:30pm 27.0 32.8 23.9 83 2.1 CALM 0 0 0 0 1011.8 1011.8 0.0
04/08:00pm 27.1 32.9 24.0 83 2.1 CALM 0 0 0 0 1011.4 1011.4 0.0
04/07:30pm 27.1 32.8 23.8 82 2.3 CALM 0 0 0 0 1011.0 1011.0 0.0
04/07:00pm 27.0 31.5 23.7 82 2.3 NNW 6 7 3 4 1010.8 1010.8 0.0
04/06:30pm 27.4 30.9 22.8 76 3.1 WNW 9 11 5 6 1010.6 1010.6 0.0
04/06:00pm 27.5 31.5 22.7 75 3.3 WNW 6 7 3 4 1010.2 1010.2 0.0
04/05:30pm 28.2 30.8 22.0 69 4.2 WNW 11 15 6 8 1009.9 1009.9 0.0
04/05:00pm 28.7 30.8 21.7 66 4.7 WNW 13 19 7 10 1009.5 1009.5 0.0
04/04:30pm 28.9 30.8 21.4 64 5.0 WNW 13 17 7 9 1009.2 1009.2 0.0
04/04:00pm 29.4 31.3 21.4 62 5.4 WNW 13 19 7 10 1009.3 1009.3 0.0
04/03:30pm 29.4 31.2 21.1 61 5.5 WNW 13 19 7 10 1009.2 1009.2 0.0
04/03:00pm 29.6 30.8 20.7 58 5.9 WNW 15 19 8 10 1009.2 1009.2 0.0
04/02:30pm 30.8 32.0 20.7 55 6.7 WNW 15 19 8 10 1009.1 1009.1 0.0
04/02:00pm 30.7 31.3 20.3 53 6.9 WNW 17 20 9 11 1009.3 1009.3 0.0
04/01:30pm 30.7 32.0 20.9 56 6.5 WNW 15 20 8 11 1009.6 1009.6 0.0
04/01:00pm 31.0 32.2 20.6 54 6.9 WNW 15 22 8 12 1009.8 1009.8 0.0
04/12:30pm 31.3 33.3 19.9 50 7.5 WNW 9 15 5 8 1010.1 1010.1 0.0
04/12:00pm 30.6 31.8 19.9 52 7.0 WNW 13 19 7 10 1010.6 1010.6 0.0
04/11:30am 31.1 33.4 19.8 51 7.4 WNW 7 13 4 7 1010.8 1010.8 0.0
04/11:00am 30.3 33.3 19.3 51 7.2 NNW 2 4 1 2 1011.3 1011.3 0.0
04/10:30am 30.2 33.6 19.3 52 7.1 CALM 0 0 0 0 1012.0 1012.0 0.0
04/10:00am 28.9 32.1 18.9 54 6.5 CALM 0 0 0 0 1012.5 1012.5 0.0
04/09:30am 28.4 30.9 18.2 54 6.5 NE 2 6 1 3 1012.5 1012.5 0.0
04/09:00am 27.5 30.3 18.8 59 5.6 ESE 2 2 1 1 1012.4 1012.4 0.0
04/08:30am 26.6 29.9 19.2 64 4.8 CALM 0 0 0 0 1012.2 1012.2 0.0
04/08:00am 25.0 28.3 19.1 70 3.8 CALM 0 0 0 0 1012.0 1012.0 0.0
04/07:30am 23.9 26.9 18.5 72 3.4 CALM 0 0 0 0 1011.9 1011.9 0.0
04/07:00am 23.2 25.2 17.9 72 3.3 SE 4 4 2 2 1011.3 1011.3 0.0
04/06:30am 23.1 24.8 18.0 73 3.2 SSE 6 6 3 3 1011.0 1011.0 0.0
04/06:00am 23.2 25.0 18.3 74 3.1 SSE 6 7 3 4 1010.9 1010.9 0.0
04/05:30am 23.0 25.2 18.3 75 2.9 SSE 4 6 2 3 1010.9 1010.9 0.0
04/05:00am 23.0 24.7 18.5 76 2.8 SSE 7 7 4 4 1010.9 1010.9 0.0
04/04:30am 23.3 25.2 18.6 75 3.0 SSE 6 7 3 4 1010.9 1010.9 0.0
04/04:00am 23.3 25.0 18.4 74 3.1 SSE 7 7 4 4 1010.8 1010.8 0.0
04/03:30am 23.4 25.6 18.3 73 3.2 S 4 6 2 3 1011.0 1011.0 0.0
04/03:00am 23.3 25.4 18.2 73 3.2 S 4 6 2 3 1011.2 1011.2 0.0
04/02:30am 23.5 25.8 18.6 74 3.1 SSE 4 6 2 3 1011.4 1011.4 0.0
04/02:00am 23.6 26.0 18.9 75 3.0 S 4 6 2 3 1011.4 1011.4 0.0
04/01:30am 23.8 26.4 19.3 76 2.9 S 4 6 2 3 1011.7 1011.7 0.0
04/01:00am 23.8 26.0 19.3 76 2.9 SSE 6 6 3 3 1011.6 1011.6 0.0
04/12:30am 24.0 26.2 19.3 75 3.0 SSE 6 6 3 3 1011.8 1011.8 0.0
04/12:00am - - - - - S 4 6 2 3 1011.7 1011.7 0.0
 
Date/Time
WST
Temp
°C
App
Temp
°C
Dew
Point
Rel
Hum
%
Delta-T
°C
Wind Press
QNH
hPa
Press
MSL
hPa
Rain
since 9 am
mm
Dir
 
Spd
km/h
Gust
km/h
Spd
kts
Gust
kts
03/11:30pm 24.9 27.9 20.8 78 2.7 S 6 6 3 3 1011.8 1011.8 0.0
03/11:00pm 25.0 27.6 20.0 74 3.2 SSW 6 7 3 4 1011.8 1011.8 0.0
03/10:30pm 25.3 28.6 19.9 72 3.5 WSW 2 4 1 2 1011.8 1011.8 0.0
03/10:00pm 25.7 28.8 20.3 72 3.5 WSW 4 6 2 3 1011.7 1011.7 0.0
03/09:30pm 25.6 29.0 19.3 68 4.0 CALM 0 0 0 0 1012.0 1012.0 0.0

Other Formats:

Comma delimited format used in spreadsheet applications
http://www.bom.gov.au/fwo/IDW60801/IDW60801.94306.axf

JavaScript Object Notation format (JSON) in row-major order
http://www.bom.gov.au/fwo/IDW60801/IDW60801.94306.json